Airfield :
LOGIN :

Register | Disclaimer

   EN    FR    IT 

 










Legend :    VFR   Marginal VFR   IFR   Intensive IFR   Very Intensive IFR
Visi :
Ceiling :
>= 8 km
>= 3000ft
5 to 8 km
1000 to 3000 ft
1500m to 5 km
500 to 1000 ft
800 to 1500m
200 to 500 ft
< 800m
< 200 ft
Symbols :   Thunderstorms  Fog  Heavy snow  Heavy precipitations  Wind > 20 kt
SIGMETs :     Misc.  Thunderstorms  Icing  Turbulence  Mountain Waves  Volcanic Ashes






- Airport Elevation : 7 ft
- IATA code : XHE


LFTH - Hyeres

CURRENT METAR :
  • 031430Z AUTO 23018KT CAVOK 25/18 Q1014 BECMG 25015G25KT

EXPIRED METARs :
  • 031400Z AUTO 23015KT 9999 ////// 25/19 Q1014
  • 031330Z AUTO 23015KT 9999 ////// 24/20 Q1014
  • 031300Z AUTO 22015KT 9999 ////// 26/18 Q1014
  • 031230Z AUTO 23017KT 9999 ////// 25/19 Q1014
  • 031200Z AUTO 23016KT 9999 ////// 25/20 Q1014

TAF TAF LFTH
Valid from the 03 at 15:00 until the 04 at 15:00 UTC


031400Z 0315/0415 25015G25KT CAVOK
BECMG 0401/0403 VRB03KT
BECMG 0406/0409 24010KT
PROB30
TEMPO 0409/0415 SHRA



MET'MAP, your aeronautical weather chart ! - Copyright ORBIFLY December 2007 - Disclaimer

ORBIFLY MET'MAP TEAM :

Programming & Development : Alexandra Zaïnal
Concept & original design : Baudouin d'Aumeries
Assistance for programming : Marc-Olivier Méhu
Technical & hardware support : Manuel Goepfert

Contact : metmap@orbifly.com




SOURCES & CREDITS :

   NOAA